Check out our new PWSWeather beta!
PWSweather.com
Personal Weather Stations
Station Observations
KMICHEBO10
Cordwood Point, Lake Huron, Cheboygan, MI 49721

Cordwood Point, Lake HuronCheboygan, MI 49721

Lat: 45.663372, Lon: -84.3327789

Elevation: 598

Station Type: Davis Vantage Pro2 Wireless

https://www.lakehuronweather.org

High Low Average
Temperature 31.7°F-0.2°F 21.8°F-5.7°F 28.1°F-2.2°F
Dew Point 30.6°F-0.8°F 18.0°F-7.8°F 25.7°F-3.5°F
Winds 5.8 mph -9.3 mph - Calm Calm 2.4 mph 3.9 mph
Wind Gusts 18.4 mph29.6 mph -- 4.8 mph7.7 mph
Humidity 96% 82% 91%
Pressure 30.16 in1021.30 in 29.64 in1003.70 in -
Precipitation 0.02 in0.50 in - -
Hour Temp Dew Point Humidity Winds Wind Gusts Pressure Precip Precip Rate Daily Precip Total
12:00 AM 27.4°F-2.6°C 23.8°F-4.6°C 86% 2.3 mph SE3.7 kmh SE 5.8 mph9.3 kmh 29.99 in1015.6 mb - 0.00 in0.0 mm 0.00 in0.0 mm
12:10 AM 27.4°F-2.6°C 24.0°F-4.4°C 87% 3.5 mph SSE5.6 kmh SSE 4.6 mph7.4 kmh 29.98 in1015.2 mb - 0.00 in0.0 mm 0.00 in0.0 mm
12:20 AM 27.4°F-2.6°C 24.0°F-4.4°C 87% 3.5 mph SE5.6 kmh SE 5.8 mph9.3 kmh 29.98 in1015.2 mb - 0.00 in0.0 mm 0.00 in0.0 mm
12:30 AM 27.5°F-2.5°C 24.1°F-4.4°C 87% 3.5 mph SE5.6 kmh SE 6.9 mph11.1 kmh 29.97 in1014.9 mb - 0.00 in0.0 mm 0.00 in0.0 mm
12:40 AM 27.6°F-2.4°C 24.2°F-4.3°C 87% 3.5 mph ESE5.6 kmh ESE 6.9 mph11.1 kmh 29.96 in1014.6 mb - 0.00 in0.0 mm 0.00 in0.0 mm
12:50 AM 27.7°F-2.4°C 24.6°F-4.1°C 88% 1.2 mph SE1.9 kmh SE 2.3 mph3.7 kmh 29.96 in1014.6 mb - 0.00 in0.0 mm 0.00 in0.0 mm
01:00 AM 27.7°F-2.4°C 24.7°F-4.1°C 88% 2.3 mph ESE3.7 kmh ESE 6.9 mph11.1 kmh 29.96 in1014.6 mb - 0.00 in0.0 mm 0.00 in0.0 mm
01:10 AM 27.8°F-2.3°C 25.0°F-3.9°C 89% 2.3 mph SE3.7 kmh SE 2.3 mph3.7 kmh 29.95 in1014.2 mb - 0.00 in0.0 mm 0.00 in0.0 mm
01:20 AM 27.7°F-2.4°C 25.2°F-3.8°C 90% 2.3 mph SE3.7 kmh SE 3.5 mph5.6 kmh 29.94 in1013.9 mb - 0.00 in0.0 mm 0.00 in0.0 mm
01:30 AM 27.6°F-2.4°C 25.3°F-3.7°C 91% 2.3 mph ESE3.7 kmh ESE 3.5 mph5.6 kmh 29.93 in1013.5 mb - 0.00 in0.0 mm 0.00 in0.0 mm
01:40 AM 27.6°F-2.4°C 25.5°F-3.6°C 92% 1.2 mph E1.9 kmh E 3.5 mph5.6 kmh 29.92 in1013.2 mb - 0.00 in0.0 mm 0.00 in0.0 mm
01:50 AM 27.5°F-2.5°C 25.5°F-3.6°C 92% 1.2 mph ENE1.9 kmh ENE 2.3 mph3.7 kmh 29.91 in1012.9 mb - 0.00 in0.0 mm 0.00 in0.0 mm
02:00 AM 27.6°F-2.4°C 25.8°F-3.4°C 93% 1.2 mph ESE1.9 kmh ESE 1.2 mph1.9 kmh 29.91 in1012.9 mb - 0.00 in0.0 mm 0.00 in0.0 mm
02:10 AM 27.6°F-2.4°C 25.8°F-3.4°C 93% Calm Calm 1.2 mph1.9 kmh 29.90 in1012.5 mb - 0.00 in0.0 mm 0.00 in0.0 mm
02:20 AM 27.7°F-2.4°C 25.9°F-3.4°C 93% Calm Calm 1.2 mph1.9 kmh 29.89 in1012.2 mb - 0.00 in0.0 mm 0.00 in0.0 mm
02:30 AM 27.9°F-2.3°C 26.1°F-3.3°C 93% Calm Calm 1.2 mph1.9 kmh 29.89 in1012.2 mb - 0.00 in0.0 mm 0.00 in0.0 mm
02:40 AM 28.0°F-2.2°C 26.5°F-3.1°C 94% 1.2 mph SE1.9 kmh SE 3.5 mph5.6 kmh 29.88 in1011.9 mb - 0.00 in0.0 mm 0.00 in0.0 mm
02:50 AM 28.3°F-2.1°C 26.8°F-2.9°C 94% 1.2 mph ESE1.9 kmh ESE 3.5 mph5.6 kmh 29.87 in1011.5 mb - 0.00 in0.0 mm 0.00 in0.0 mm
03:00 AM 28.5°F-1.9°C 27.0°F-2.8°C 94% 1.2 mph ENE1.9 kmh ENE 2.3 mph3.7 kmh 29.86 in1011.2 mb - 0.00 in0.0 mm 0.00 in0.0 mm
03:10 AM 28.7°F-1.8°C 27.2°F-2.7°C 94% 1.2 mph ESE1.9 kmh ESE 2.3 mph3.7 kmh 29.84 in1010.5 mb - 0.00 in0.0 mm 0.00 in0.0 mm
03:20 AM 28.9°F-1.7°C 27.4°F-2.6°C 94% 3.5 mph SSE5.6 kmh SSE 4.6 mph7.4 kmh 29.83 in1010.2 mb - 0.00 in0.0 mm 0.00 in0.0 mm
03:30 AM 29.2°F-1.6°C 27.9°F-2.3°C 95% 3.5 mph E5.6 kmh E 5.8 mph9.3 kmh 29.82 in1009.8 mb - 0.00 in0.0 mm 0.00 in0.0 mm
03:40 AM 29.5°F-1.4°C 28.2°F-2.1°C 95% 2.3 mph ESE3.7 kmh ESE 5.8 mph9.3 kmh 29.81 in1009.5 mb - 0.00 in0.0 mm 0.00 in0.0 mm
03:50 AM 29.8°F-1.2°C 28.5°F-1.9°C 95% 1.2 mph E1.9 kmh E 2.3 mph3.7 kmh 29.80 in1009.1 mb - 0.00 in0.0 mm 0.00 in0.0 mm
04:00 AM 29.9°F-1.2°C 28.6°F-1.9°C 95% 3.5 mph E5.6 kmh E 8.1 mph13.0 kmh 29.79 in1008.8 mb - 0.00 in0.0 mm 0.00 in0.0 mm
04:10 AM 30.1°F-1.1°C 28.8°F-1.8°C 95% 3.5 mph ESE5.6 kmh ESE 5.8 mph9.3 kmh 29.78 in1008.5 mb - 0.00 in0.0 mm 0.00 in0.0 mm
04:20 AM 30.3°F-0.9°C 29.0°F-1.7°C 95% 2.3 mph ESE3.7 kmh ESE 4.6 mph7.4 kmh 29.77 in1008.1 mb - 0.00 in0.0 mm 0.00 in0.0 mm
04:30 AM 30.4°F-0.9°C 29.1°F-1.6°C 95% 2.3 mph ESE3.7 kmh ESE 4.6 mph7.4 kmh 29.77 in1008.1 mb - 0.00 in0.0 mm 0.00 in0.0 mm
04:40 AM 30.5°F-0.8°C 29.2°F-1.6°C 95% 1.2 mph ESE1.9 kmh ESE 3.5 mph5.6 kmh 29.76 in1007.8 mb - 0.00 in0.0 mm 0.00 in0.0 mm
04:50 AM 30.7°F-0.7°C 29.4°F-1.4°C 95% 3.5 mph SE5.6 kmh SE 8.1 mph13.0 kmh 29.75 in1007.5 mb - 0.00 in0.0 mm 0.00 in0.0 mm
05:00 AM 30.8°F-0.7°C 29.8°F-1.2°C 96% 3.5 mph E5.6 kmh E 8.1 mph13.0 kmh 29.74 in1007.1 mb - 0.00 in0.0 mm 0.00 in0.0 mm
05:10 AM 31.0°F-0.6°C 30.0°F-1.1°C 96% 1.2 mph E1.9 kmh E 3.5 mph5.6 kmh 29.73 in1006.8 mb - 0.00 in0.0 mm 0.00 in0.0 mm
05:20 AM 31.1°F-0.5°C 30.1°F-1.1°C 96% 2.3 mph SE3.7 kmh SE 5.8 mph9.3 kmh 29.73 in1006.8 mb - 0.00 in0.0 mm 0.00 in0.0 mm
05:30 AM 31.2°F-0.4°C 30.2°F-1.0°C 96% Calm Calm 1.2 mph1.9 kmh 29.72 in1006.4 mb - 0.00 in0.0 mm 0.00 in0.0 mm
05:40 AM 31.4°F-0.3°C 30.4°F-0.9°C 96% 2.3 mph SE3.7 kmh SE 3.5 mph5.6 kmh 29.72 in1006.4 mb - 0.00 in0.0 mm 0.00 in0.0 mm
05:50 AM 31.4°F-0.3°C 30.4°F-0.9°C 96% 1.2 mph SE1.9 kmh SE 2.3 mph3.7 kmh 29.71 in1006.1 mb - 0.00 in0.0 mm 0.00 in0.0 mm
06:00 AM 31.5°F-0.3°C 30.5°F-0.8°C 96% 3.5 mph SE5.6 kmh SE 4.6 mph7.4 kmh 29.71 in1006.1 mb - 0.00 in0.0 mm 0.00 in0.0 mm
06:10 AM 31.6°F-0.2°C 30.6°F-0.8°C 96% 1.2 mph ESE1.9 kmh ESE 2.3 mph3.7 kmh 29.70 in1005.8 mb - 0.00 in0.0 mm 0.00 in0.0 mm
06:20 AM 31.6°F-0.2°C 30.6°F-0.8°C 96% Calm Calm 1.2 mph1.9 kmh 29.70 in1005.8 mb - 0.00 in0.0 mm 0.00 in0.0 mm
06:30 AM 31.6°F-0.2°C 30.6°F-0.8°C 96% Calm Calm 2.3 mph3.7 kmh 29.69 in1005.4 mb - 0.00 in0.0 mm 0.00 in0.0 mm
06:40 AM 31.6°F-0.2°C 30.6°F-0.8°C 96% Calm Calm 1.2 mph1.9 kmh 29.68 in1005.1 mb - 0.00 in0.0 mm 0.00 in0.0 mm
06:50 AM 31.6°F-0.2°C 30.6°F-0.8°C 96% Calm Calm -- 29.67 in1004.7 mb - 0.00 in0.0 mm 0.00 in0.0 mm
07:00 AM 31.5°F-0.3°C 30.5°F-0.8°C 96% Calm Calm 1.2 mph1.9 kmh 29.66 in1004.4 mb - 0.00 in0.0 mm 0.00 in0.0 mm
07:10 AM 31.5°F-0.3°C 30.5°F-0.8°C 96% Calm Calm -- 29.66 in1004.4 mb - 0.00 in0.0 mm 0.00 in0.0 mm
07:20 AM 31.4°F-0.3°C 30.4°F-0.9°C 96% Calm Calm -- 29.66 in1004.4 mb - 0.00 in0.0 mm 0.00 in0.0 mm
07:30 AM 31.3°F-0.4°C 30.3°F-0.9°C 96% Calm Calm -- 29.65 in1004.1 mb - 0.00 in0.0 mm 0.00 in0.0 mm
07:40 AM 31.2°F-0.4°C 30.2°F-1.0°C 96% Calm Calm -- 29.64 in1003.7 mb - 0.00 in0.0 mm 0.00 in0.0 mm
07:50 AM 31.1°F-0.5°C 29.8°F-1.2°C 95% Calm Calm -- 29.64 in1003.7 mb - 0.00 in0.0 mm 0.00 in0.0 mm
08:00 AM 30.9°F-0.6°C 29.9°F-1.2°C 96% Calm Calm -- 29.64 in1003.7 mb - 0.00 in0.0 mm 0.00 in0.0 mm
08:10 AM 30.8°F-0.7°C 29.8°F-1.2°C 96% Calm Calm -- 29.65 in1004.1 mb - 0.00 in0.0 mm 0.00 in0.0 mm
08:20 AM 30.8°F-0.7°C 29.8°F-1.2°C 96% Calm Calm -- 29.65 in1004.1 mb - 0.00 in0.0 mm 0.00 in0.0 mm
08:30 AM 30.8°F-0.7°C 29.8°F-1.2°C 96% Calm Calm -- 29.65 in1004.1 mb - 0.00 in0.0 mm 0.00 in0.0 mm
08:40 AM 30.8°F-0.7°C 29.8°F-1.2°C 96% Calm Calm -- 29.65 in1004.1 mb - 0.00 in0.0 mm 0.00 in0.0 mm
08:50 AM 30.9°F-0.6°C 29.9°F-1.2°C 96% Calm Calm 1.2 mph1.9 kmh 29.64 in1003.7 mb - 0.00 in0.0 mm 0.00 in0.0 mm
09:00 AM 31.0°F-0.6°C 30.0°F-1.1°C 96% Calm Calm 3.5 mph5.6 kmh 29.65 in1004.1 mb - 0.00 in0.0 mm 0.00 in0.0 mm
09:10 AM 31.0°F-0.6°C 29.9°F-1.2°C 96% 1.2 mph S1.9 kmh S 3.5 mph5.6 kmh 29.65 in1004.1 mb - 0.00 in0.0 mm 0.00 in0.0 mm
09:20 AM 30.8°F-0.7°C 29.5°F-1.4°C 95% 1.2 mph SW1.9 kmh SW 2.3 mph3.7 kmh 29.66 in1004.4 mb - 0.00 in0.0 mm 0.00 in0.0 mm
09:30 AM 30.8°F-0.7°C 29.8°F-1.2°C 96% 2.3 mph SW3.7 kmh SW 4.6 mph7.4 kmh 29.66 in1004.4 mb - 0.00 in0.0 mm 0.00 in0.0 mm
09:40 AM 30.7°F-0.7°C 29.5°F-1.4°C 95% 1.2 mph SW1.9 kmh SW 5.8 mph9.3 kmh 29.66 in1004.4 mb - 0.00 in0.0 mm 0.00 in0.0 mm
09:50 AM 30.6°F-0.8°C 29.3°F-1.5°C 95% Calm Calm 2.3 mph3.7 kmh 29.67 in1004.7 mb - 0.00 in0.0 mm 0.00 in0.0 mm
10:00 AM 30.3°F-0.9°C 29.0°F-1.7°C 95% Calm Calm 1.2 mph1.9 kmh 29.67 in1004.7 mb - 0.00 in0.0 mm 0.00 in0.0 mm
10:10 AM 30.3°F-0.9°C 29.0°F-1.7°C 95% Calm Calm 1.2 mph1.9 kmh 29.68 in1005.1 mb - 0.00 in0.0 mm 0.00 in0.0 mm
10:20 AM 30.4°F-0.9°C 29.1°F-1.6°C 95% Calm Calm 2.3 mph3.7 kmh 29.68 in1005.1 mb - 0.00 in0.0 mm 0.00 in0.0 mm
10:30 AM 31.2°F-0.4°C 29.9°F-1.2°C 95% 1.2 mph SW1.9 kmh SW 2.3 mph3.7 kmh 29.69 in1005.4 mb - 0.00 in0.0 mm 0.00 in0.0 mm
10:40 AM 31.7°F-0.2°C 30.4°F-0.9°C 95% 1.2 mph NW1.9 kmh NW 2.3 mph3.7 kmh 29.70 in1005.8 mb - 0.00 in0.0 mm 0.00 in0.0 mm
10:50 AM 31.5°F-0.3°C 29.7°F-1.3°C 93% 2.3 mph WSW3.7 kmh WSW 4.6 mph7.4 kmh 29.71 in1006.1 mb - 0.00 in0.0 mm 0.00 in0.0 mm
11:00 AM 30.9°F-0.6°C 28.8°F-1.8°C 92% 2.3 mph NW3.7 kmh NW 8.1 mph13.0 kmh 29.72 in1006.4 mb - 0.00 in0.0 mm 0.00 in0.0 mm
11:10 AM 30.4°F-0.9°C 28.6°F-1.9°C 93% 2.3 mph ENE3.7 kmh ENE 4.6 mph7.4 kmh 29.73 in1006.8 mb - 0.00 in0.0 mm 0.00 in0.0 mm
11:20 AM 30.5°F-0.8°C 28.7°F-1.8°C 93% 2.3 mph W3.7 kmh W 4.6 mph7.4 kmh 29.74 in1007.1 mb - 0.00 in0.0 mm 0.00 in0.0 mm
11:30 AM 30.8°F-0.7°C 29.0°F-1.7°C 93% 3.5 mph SW5.6 kmh SW 3.5 mph5.6 kmh 29.74 in1007.1 mb - 0.00 in0.0 mm 0.00 in0.0 mm
11:40 AM 31.3°F-0.4°C 29.8°F-1.2°C 94% 4.6 mph SSE7.4 kmh SSE 8.1 mph13.0 kmh 29.75 in1007.5 mb - 0.00 in0.0 mm 0.00 in0.0 mm
11:50 AM 31.3°F-0.4°C 29.5°F-1.4°C 93% 2.3 mph SSW3.7 kmh SSW 4.6 mph7.4 kmh 29.76 in1007.8 mb - 0.00 in0.0 mm 0.00 in0.0 mm
12:00 PM 31.4°F-0.3°C 29.6°F-1.3°C 93% 1.2 mph W1.9 kmh W 3.5 mph5.6 kmh 29.77 in1008.1 mb - 0.00 in0.0 mm 0.00 in0.0 mm
12:10 PM 31.5°F-0.3°C 29.7°F-1.3°C 93% 4.6 mph W7.4 kmh W 10.4 mph16.7 kmh 29.77 in1008.1 mb - 0.00 in0.0 mm 0.00 in0.0 mm
12:20 PM 31.5°F-0.3°C 29.7°F-1.3°C 93% 4.6 mph WSW7.4 kmh WSW 8.1 mph13.0 kmh 29.79 in1008.8 mb - 0.00 in0.0 mm 0.00 in0.0 mm
12:30 PM 31.1°F-0.5°C 29.0°F-1.7°C 92% 3.5 mph W5.6 kmh W 12.7 mph20.4 kmh 29.80 in1009.1 mb - 0.00 in0.0 mm 0.00 in0.0 mm
12:40 PM 30.5°F-0.8°C 28.5°F-1.9°C 92% 3.5 mph SW5.6 kmh SW 6.9 mph11.1 kmh 29.80 in1009.1 mb - 0.00 in0.0 mm 0.00 in0.0 mm
12:50 PM 30.3°F-0.9°C 28.3°F-2.1°C 92% 3.5 mph WSW5.6 kmh WSW 11.5 mph18.5 kmh 29.81 in1009.5 mb - 0.00 in0.0 mm 0.00 in0.0 mm
01:00 PM 30.4°F-0.9°C 28.4°F-2.0°C 92% 3.5 mph SW5.6 kmh SW 5.8 mph9.3 kmh 29.82 in1009.8 mb - 0.00 in0.0 mm 0.00 in0.0 mm
01:10 PM 30.6°F-0.8°C 28.6°F-1.9°C 92% 4.6 mph NW7.4 kmh NW 4.6 mph7.4 kmh 29.83 in1010.2 mb - 0.00 in0.0 mm 0.00 in0.0 mm
01:20 PM 30.3°F-0.9°C 27.7°F-2.4°C 90% 2.3 mph WNW3.7 kmh WNW 5.8 mph9.3 kmh 29.84 in1010.5 mb - 0.00 in0.0 mm 0.00 in0.0 mm
01:30 PM 30.1°F-1.1°C 27.5°F-2.5°C 90% 4.6 mph WSW7.4 kmh WSW 6.9 mph11.1 kmh 29.84 in1010.5 mb - 0.01 in0.3 mm 0.01 in0.3 mm
01:40 PM 29.7°F-1.3°C 27.1°F-2.7°C 90% 4.6 mph W7.4 kmh W 5.8 mph9.3 kmh 29.85 in1010.8 mb - 0.00 in0.0 mm 0.01 in0.3 mm
01:50 PM 29.3°F-1.5°C 27.0°F-2.8°C 91% 4.6 mph WNW7.4 kmh WNW 5.8 mph9.3 kmh 29.85 in1010.8 mb - 0.00 in0.0 mm 0.01 in0.3 mm
02:00 PM 28.9°F-1.7°C 26.3°F-3.2°C 90% 5.8 mph W9.3 kmh W 18.4 mph29.6 kmh 29.87 in1011.5 mb - 0.00 in0.0 mm 0.01 in0.3 mm
02:10 PM 28.6°F-1.9°C 26.1°F-3.3°C 90% 4.6 mph NW7.4 kmh NW 5.8 mph9.3 kmh 29.88 in1011.9 mb - 0.00 in0.0 mm 0.01 in0.3 mm
02:20 PM 28.3°F-2.1°C 25.7°F-3.5°C 90% 4.6 mph W7.4 kmh W 8.1 mph13.0 kmh 29.89 in1012.2 mb - 0.01 in0.3 mm 0.02 in0.5 mm
02:30 PM 28.0°F-2.2°C 25.2°F-3.8°C 89% 3.5 mph W5.6 kmh W 4.6 mph7.4 kmh 29.89 in1012.2 mb - 0.00 in0.0 mm 0.02 in0.5 mm
02:40 PM 27.9°F-2.3°C 25.3°F-3.7°C 90% 3.5 mph W5.6 kmh W 3.5 mph5.6 kmh 29.90 in1012.5 mb - 0.00 in0.0 mm 0.02 in0.5 mm
02:50 PM 27.7°F-2.4°C 24.9°F-3.9°C 89% 4.6 mph W7.4 kmh W 6.9 mph11.1 kmh 29.91 in1012.9 mb - 0.00 in0.0 mm 0.02 in0.5 mm
03:00 PM 27.4°F-2.6°C 24.3°F-4.3°C 88% 4.6 mph WNW7.4 kmh WNW 11.5 mph18.5 kmh 29.92 in1013.2 mb - 0.00 in0.0 mm 0.02 in0.5 mm
03:10 PM 27.2°F-2.7°C 24.1°F-4.4°C 88% 4.6 mph WNW7.4 kmh WNW 8.1 mph13.0 kmh 29.93 in1013.5 mb - 0.00 in0.0 mm 0.02 in0.5 mm
03:20 PM 27.0°F-2.8°C 23.6°F-4.7°C 87% 4.6 mph WNW7.4 kmh WNW 8.1 mph13.0 kmh 29.93 in1013.5 mb - 0.00 in0.0 mm 0.02 in0.5 mm
03:30 PM 26.9°F-2.8°C 23.5°F-4.7°C 87% 3.5 mph WNW5.6 kmh WNW 5.8 mph9.3 kmh 29.94 in1013.9 mb - 0.00 in0.0 mm 0.02 in0.5 mm
03:40 PM 26.8°F-2.9°C 23.7°F-4.6°C 88% 3.5 mph NW5.6 kmh NW 5.8 mph9.3 kmh 29.95 in1014.2 mb - 0.00 in0.0 mm 0.02 in0.5 mm
03:50 PM 26.7°F-2.9°C 23.9°F-4.5°C 89% 3.5 mph WSW5.6 kmh WSW 4.6 mph7.4 kmh 29.95 in1014.2 mb - 0.00 in0.0 mm 0.02 in0.5 mm
04:00 PM 26.6°F-3.0°C 23.3°F-4.8°C 87% 3.5 mph W5.6 kmh W 4.6 mph7.4 kmh 29.96 in1014.6 mb - 0.00 in0.0 mm 0.02 in0.5 mm
04:10 PM 26.5°F-3.1°C 23.4°F-4.8°C 88% 2.3 mph WNW3.7 kmh WNW 3.5 mph5.6 kmh 29.96 in1014.6 mb - 0.00 in0.0 mm 0.02 in0.5 mm
04:20 PM 26.4°F-3.1°C 23.3°F-4.8°C 88% 2.3 mph WSW3.7 kmh WSW 3.5 mph5.6 kmh 29.97 in1014.9 mb - 0.00 in0.0 mm 0.02 in0.5 mm
04:30 PM 26.3°F-3.2°C 23.0°F-5.0°C 87% 3.5 mph W5.6 kmh W 9.2 mph14.8 kmh 29.97 in1014.9 mb - 0.00 in0.0 mm 0.02 in0.5 mm
04:40 PM 26.2°F-3.2°C 22.9°F-5.1°C 87% 3.5 mph W5.6 kmh W 11.5 mph18.5 kmh 29.97 in1014.9 mb - 0.00 in0.0 mm 0.02 in0.5 mm
04:50 PM 26.1°F-3.3°C 22.8°F-5.1°C 87% 4.6 mph W7.4 kmh W 11.5 mph18.5 kmh 29.98 in1015.2 mb - 0.00 in0.0 mm 0.02 in0.5 mm
05:00 PM 25.9°F-3.4°C 22.6°F-5.2°C 87% 2.3 mph NW3.7 kmh NW 5.8 mph9.3 kmh 29.98 in1015.2 mb - 0.00 in0.0 mm 0.02 in0.5 mm
05:10 PM 25.9°F-3.4°C 22.8°F-5.1°C 88% 3.5 mph WNW5.6 kmh WNW 10.4 mph16.7 kmh 29.99 in1015.6 mb - 0.00 in0.0 mm 0.02 in0.5 mm
05:20 PM 25.8°F-3.4°C 22.5°F-5.3°C 87% 3.5 mph W5.6 kmh W 6.9 mph11.1 kmh 30.00 in1015.9 mb - 0.00 in0.0 mm 0.02 in0.5 mm
05:30 PM 25.7°F-3.5°C 22.6°F-5.2°C 88% 2.3 mph WSW3.7 kmh WSW 5.8 mph9.3 kmh 30.00 in1015.9 mb - 0.00 in0.0 mm 0.02 in0.5 mm
05:40 PM 25.7°F-3.5°C 22.4°F-5.3°C 87% 3.5 mph W5.6 kmh W 6.9 mph11.1 kmh 30.01 in1016.3 mb - 0.00 in0.0 mm 0.02 in0.5 mm
05:50 PM 25.4°F-3.7°C 21.8°F-5.7°C 86% 3.5 mph W5.6 kmh W 4.6 mph7.4 kmh 30.01 in1016.3 mb - 0.00 in0.0 mm 0.02 in0.5 mm
06:00 PM 25.3°F-3.7°C 21.4°F-5.9°C 85% 3.5 mph WSW5.6 kmh WSW 5.8 mph9.3 kmh 30.02 in1016.6 mb - 0.00 in0.0 mm 0.02 in0.5 mm
06:10 PM 25.1°F-3.8°C 21.2°F-6.0°C 85% 3.5 mph WNW5.6 kmh WNW 5.8 mph9.3 kmh 30.03 in1016.9 mb - 0.00 in0.0 mm 0.02 in0.5 mm
06:20 PM 24.9°F-3.9°C 21.0°F-6.1°C 85% 4.6 mph W7.4 kmh W 10.4 mph16.7 kmh 30.04 in1017.3 mb - 0.00 in0.0 mm 0.02 in0.5 mm
06:30 PM 24.8°F-4.0°C 21.0°F-6.1°C 85% 2.3 mph WNW3.7 kmh WNW 4.6 mph7.4 kmh 30.04 in1017.3 mb - 0.00 in0.0 mm 0.02 in0.5 mm
06:40 PM 24.8°F-4.0°C 21.2°F-6.0°C 86% 3.5 mph WSW5.6 kmh WSW 6.9 mph11.1 kmh 30.05 in1017.6 mb - 0.00 in0.0 mm 0.02 in0.5 mm
06:50 PM 24.8°F-4.0°C 21.2°F-6.0°C 86% 4.6 mph WSW7.4 kmh WSW 8.1 mph13.0 kmh 30.05 in1017.6 mb - 0.00 in0.0 mm 0.02 in0.5 mm
07:00 PM 24.5°F-4.2°C 20.9°F-6.2°C 86% 3.5 mph WSW5.6 kmh WSW 11.5 mph18.5 kmh 30.06 in1017.9 mb - 0.00 in0.0 mm 0.02 in0.5 mm
07:10 PM 24.4°F-4.2°C 21.1°F-6.1°C 87% 3.5 mph W5.6 kmh W 3.5 mph5.6 kmh 30.06 in1017.9 mb - 0.00 in0.0 mm 0.02 in0.5 mm
07:20 PM 24.4°F-4.2°C 21.4°F-5.9°C 88% 2.3 mph WSW3.7 kmh WSW 3.5 mph5.6 kmh 30.07 in1018.3 mb - 0.00 in0.0 mm 0.02 in0.5 mm
07:30 PM 24.4°F-4.2°C 20.8°F-6.2°C 86% 2.3 mph SW3.7 kmh SW 4.6 mph7.4 kmh 30.07 in1018.3 mb - 0.00 in0.0 mm 0.02 in0.5 mm
07:40 PM 24.6°F-4.1°C 20.7°F-6.3°C 85% 2.3 mph W3.7 kmh W 3.5 mph5.6 kmh 30.07 in1018.3 mb - 0.00 in0.0 mm 0.02 in0.5 mm
07:50 PM 24.7°F-4.1°C 20.6°F-6.3°C 84% 3.5 mph WSW5.6 kmh WSW 3.5 mph5.6 kmh 30.08 in1018.6 mb - 0.00 in0.0 mm 0.02 in0.5 mm
08:00 PM 24.8°F-4.0°C 20.9°F-6.2°C 85% 1.2 mph NW1.9 kmh NW 2.3 mph3.7 kmh 30.08 in1018.6 mb - 0.00 in0.0 mm 0.02 in0.5 mm
08:10 PM 24.8°F-4.0°C 20.7°F-6.3°C 84% 2.3 mph NW3.7 kmh NW 4.6 mph7.4 kmh 30.09 in1019.0 mb - 0.00 in0.0 mm 0.02 in0.5 mm
08:20 PM 24.9°F-3.9°C 20.8°F-6.2°C 84% 1.2 mph W1.9 kmh W 3.5 mph5.6 kmh 30.09 in1019.0 mb - 0.00 in0.0 mm 0.02 in0.5 mm
08:30 PM 25.0°F-3.9°C 21.1°F-6.1°C 85% 1.2 mph WSW1.9 kmh WSW 2.3 mph3.7 kmh 30.09 in1019.0 mb - 0.00 in0.0 mm 0.02 in0.5 mm
08:40 PM 24.9°F-3.9°C 20.5°F-6.4°C 83% 2.3 mph W3.7 kmh W 2.3 mph3.7 kmh 30.09 in1019.0 mb - 0.00 in0.0 mm 0.02 in0.5 mm
08:50 PM 24.9°F-3.9°C 20.2°F-6.6°C 82% 2.3 mph NNE3.7 kmh NNE 4.6 mph7.4 kmh 30.09 in1019.0 mb - 0.00 in0.0 mm 0.02 in0.5 mm
09:00 PM 25.0°F-3.9°C 21.1°F-6.1°C 85% 1.2 mph NW1.9 kmh NW 4.6 mph7.4 kmh 30.10 in1019.3 mb - 0.00 in0.0 mm 0.02 in0.5 mm
09:10 PM 25.1°F-3.8°C 21.5°F-5.8°C 86% 2.3 mph WNW3.7 kmh WNW 4.6 mph7.4 kmh 30.10 in1019.3 mb - 0.00 in0.0 mm 0.02 in0.5 mm
09:20 PM 25.0°F-3.9°C 21.4°F-5.9°C 86% 3.5 mph NW5.6 kmh NW 8.1 mph13.0 kmh 30.11 in1019.6 mb - 0.00 in0.0 mm 0.02 in0.5 mm
09:30 PM 24.9°F-3.9°C 21.6°F-5.8°C 87% 2.3 mph WSW3.7 kmh WSW 4.6 mph7.4 kmh 30.11 in1019.6 mb - 0.00 in0.0 mm 0.02 in0.5 mm
09:40 PM 24.8°F-4.0°C 21.2°F-6.0°C 86% 2.3 mph WNW3.7 kmh WNW 3.5 mph5.6 kmh 30.11 in1019.6 mb - 0.00 in0.0 mm 0.02 in0.5 mm
09:50 PM 24.7°F-4.1°C 21.1°F-6.1°C 86% 2.3 mph NW3.7 kmh NW 3.5 mph5.6 kmh 30.11 in1019.6 mb - 0.00 in0.0 mm 0.02 in0.5 mm
10:00 PM 24.5°F-4.2°C 20.9°F-6.2°C 86% 3.5 mph WNW5.6 kmh WNW 6.9 mph11.1 kmh 30.12 in1020.0 mb - 0.00 in0.0 mm 0.02 in0.5 mm
10:10 PM 24.3°F-4.3°C 20.7°F-6.3°C 86% 2.3 mph NW3.7 kmh NW 6.9 mph11.1 kmh 30.12 in1020.0 mb - 0.00 in0.0 mm 0.02 in0.5 mm
10:20 PM 24.0°F-4.4°C 20.4°F-6.4°C 86% 2.3 mph NW3.7 kmh NW 4.6 mph7.4 kmh 30.13 in1020.3 mb - 0.00 in0.0 mm 0.02 in0.5 mm
10:30 PM 23.7°F-4.6°C 20.1°F-6.6°C 86% 2.3 mph NW3.7 kmh NW 4.6 mph7.4 kmh 30.14 in1020.7 mb - 0.00 in0.0 mm 0.02 in0.5 mm
10:40 PM 23.4°F-4.8°C 19.8°F-6.8°C 86% 2.3 mph WNW3.7 kmh WNW 4.6 mph7.4 kmh 30.14 in1020.7 mb - 0.00 in0.0 mm 0.02 in0.5 mm
10:50 PM 23.1°F-4.9°C 19.8°F-6.8°C 87% 2.3 mph W3.7 kmh W 4.6 mph7.4 kmh 30.14 in1020.7 mb - 0.00 in0.0 mm 0.02 in0.5 mm
11:00 PM 22.9°F-5.1°C 19.6°F-6.9°C 87% 3.5 mph NW5.6 kmh NW 11.5 mph18.5 kmh 30.15 in1021.0 mb - 0.00 in0.0 mm 0.02 in0.5 mm
11:10 PM 22.5°F-5.3°C 19.0°F-7.2°C 86% 4.6 mph NW7.4 kmh NW 10.4 mph16.7 kmh 30.14 in1020.7 mb - 0.00 in0.0 mm 0.02 in0.5 mm
11:20 PM 22.4°F-5.3°C 19.1°F-7.2°C 87% 3.5 mph WNW5.6 kmh WNW 3.5 mph5.6 kmh 30.15 in1021.0 mb - 0.00 in0.0 mm 0.02 in0.5 mm
11:30 PM 22.3°F-5.4°C 18.7°F-7.4°C 86% 3.5 mph W5.6 kmh W 6.9 mph11.1 kmh 30.15 in1021.0 mb - 0.00 in0.0 mm 0.02 in0.5 mm
11:40 PM 22.0°F-5.6°C 18.2°F-7.7°C 85% 2.3 mph W3.7 kmh W 5.8 mph9.3 kmh 30.16 in1021.3 mb - 0.00 in0.0 mm 0.02 in0.5 mm
11:50 PM 21.8°F-5.7°C 18.0°F-7.8°C 85% 4.6 mph W7.4 kmh W 6.9 mph11.1 kmh 30.16 in1021.3 mb - 0.00 in0.0 mm 0.02 in0.5 mm